createdAt,value
2023-03-18T00:02:09.558Z,74.63
2023-03-18T00:04:37.176Z,75.15
2023-03-18T00:07:06.340Z,75.00
2023-03-18T00:09:34.034Z,74.65
2023-03-18T00:12:01.652Z,75.13
2023-03-18T00:14:29.934Z,75.16
2023-03-18T00:16:57.511Z,75.16
2023-03-18T00:19:25.672Z,75.24
2023-03-18T00:21:53.182Z,74.95
2023-03-18T00:24:22.046Z,74.58
2023-03-18T00:26:49.570Z,74.87
2023-03-18T00:29:17.176Z,75.61
2023-03-18T00:31:44.858Z,75.50
2023-03-18T00:34:12.895Z,75.29
2023-03-18T00:36:40.500Z,75.39
2023-03-18T00:39:09.307Z,75.57
2023-03-18T00:41:38.196Z,75.55
2023-03-18T00:44:05.967Z,75.67
2023-03-18T00:46:34.103Z,75.74
2023-03-18T00:49:02.210Z,75.58
2023-03-18T00:51:31.484Z,76.00
2023-03-18T00:54:00.563Z,75.90
2023-03-18T00:56:29.380Z,75.89
2023-03-18T00:58:58.451Z,75.94
2023-03-18T01:01:26.544Z,75.93
2023-03-18T01:03:54.965Z,76.32
2023-03-18T01:06:23.276Z,76.07
2023-03-18T01:08:51.613Z,76.20
2023-03-18T01:11:19.498Z,76.37
2023-03-18T01:13:47.480Z,76.27
2023-03-18T01:16:16.455Z,76.24
2023-03-18T01:18:43.936Z,76.21
2023-03-18T01:21:12.040Z,76.44
2023-03-18T01:23:39.835Z,76.27
2023-03-18T01:26:07.624Z,76.27
2023-03-18T01:28:35.166Z,76.28
2023-03-18T01:31:02.636Z,76.29
2023-03-18T01:33:31.520Z,76.51
2023-03-18T01:35:59.890Z,76.43
2023-03-18T01:38:30.425Z,76.62
2023-03-18T01:40:58.017Z,76.73
2023-03-18T01:43:26.376Z,76.71
2023-03-18T01:45:54.636Z,76.69
2023-03-18T01:48:23.340Z,76.60
2023-03-18T01:50:54.171Z,76.79
2023-03-18T01:53:21.875Z,76.74
2023-03-18T01:55:49.684Z,76.90
2023-03-18T01:58:18.577Z,76.93
2023-03-18T02:00:47.166Z,76.76
2023-03-18T02:03:15.260Z,76.68
2023-03-18T02:05:43.244Z,76.87
2023-03-18T02:08:12.212Z,76.57
2023-03-18T02:10:39.766Z,76.66
2023-03-18T02:13:08.218Z,77.16
2023-03-18T02:15:37.149Z,77.07
2023-03-18T02:18:05.848Z,77.00
2023-03-18T02:20:38.231Z,77.25
2023-03-18T02:23:08.797Z,78.05
2023-03-18T02:25:40.256Z,77.39
2023-03-18T02:28:10.548Z,77.25
2023-03-18T02:30:39.323Z,77.34
2023-03-18T02:33:06.930Z,77.05
2023-03-18T02:35:34.489Z,77.68
2023-03-18T02:38:01.966Z,77.33
2023-03-18T02:40:31.012Z,77.05
2023-03-18T02:42:58.719Z,77.49
2023-03-18T02:45:34.910Z,76.96
2023-03-18T02:48:02.417Z,77.52
2023-03-18T02:50:29.982Z,77.60
2023-03-18T02:52:58.163Z,77.70
2023-03-18T02:55:25.655Z,77.87
2023-03-18T02:57:53.181Z,77.70
2023-03-18T03:00:20.827Z,77.74
2023-03-18T03:02:49.789Z,77.55
2023-03-18T03:05:17.378Z,77.57
2023-03-18T03:07:44.917Z,77.90
2023-03-18T03:10:13.012Z,78.18
2023-03-18T03:12:41.172Z,77.96
2023-03-18T03:15:09.106Z,78.23
2023-03-18T03:17:36.892Z,78.08
2023-03-18T03:20:07.041Z,78.04
2023-03-18T03:22:34.780Z,78.18
2023-03-18T03:25:02.605Z,77.86
2023-03-18T03:27:30.092Z,77.88
2023-03-18T03:29:57.639Z,77.65
2023-03-18T03:32:25.131Z,77.43
2023-03-18T03:34:52.706Z,78.28
2023-03-18T03:37:21.997Z,78.40
2023-03-18T03:39:50.697Z,78.19
2023-03-18T03:42:18.234Z,78.43
2023-03-18T03:44:45.889Z,79.24
2023-03-18T03:47:13.530Z,78.58
2023-03-18T03:49:41.616Z,78.78
2023-03-18T03:52:09.137Z,78.91
2023-03-18T03:54:38.212Z,78.86
2023-03-18T03:57:05.955Z,78.95
2023-03-18T03:59:33.478Z,79.17
2023-03-18T04:02:00.998Z,79.50
2023-03-18T04:04:28.757Z,80.06
2023-03-18T04:06:56.274Z,80.36
2023-03-18T04:09:23.864Z,79.77
2023-03-18T04:11:53.034Z,79.77
2023-03-18T04:14:20.489Z,79.75
2023-03-18T04:16:47.969Z,80.51
2023-03-18T04:19:16.817Z,80.84
2023-03-18T04:21:44.363Z,80.96
2023-03-18T04:24:11.828Z,80.52
2023-03-18T04:26:39.323Z,80.80
2023-03-18T04:29:08.624Z,80.60
2023-03-18T04:31:36.268Z,81.43
2023-03-18T04:34:03.826Z,80.93
2023-03-18T04:36:31.294Z,81.26
2023-03-18T04:38:59.981Z,80.25
2023-03-18T04:41:27.578Z,81.06
2023-03-18T04:43:55.076Z,80.60
2023-03-18T04:46:23.987Z,81.21
2023-03-18T04:48:51.502Z,82.17
2023-03-18T04:51:19.116Z,82.43
2023-03-18T04:53:46.579Z,80.90
2023-03-18T04:56:14.014Z,81.27
2023-03-18T04:58:41.527Z,81.69
2023-03-18T05:01:10.021Z,82.16
2023-03-18T05:03:39.006Z,82.70
2023-03-18T05:06:08.120Z,83.12
2023-03-18T05:08:35.615Z,82.70
2023-03-18T05:11:03.375Z,82.51
2023-03-18T05:13:30.880Z,83.01
2023-03-18T05:15:59.078Z,83.32
2023-03-18T05:18:26.516Z,82.40
2023-03-18T05:20:55.496Z,82.95
2023-03-18T05:23:24.020Z,82.02
2023-03-18T05:25:51.564Z,82.88
2023-03-18T05:28:19.318Z,82.55
2023-03-18T05:30:47.403Z,83.01
2023-03-18T05:33:15.038Z,83.04
2023-03-18T05:35:42.619Z,83.05
2023-03-18T05:38:11.541Z,83.31
2023-03-18T05:40:39.217Z,83.19
2023-03-18T05:43:06.746Z,83.09
2023-03-18T05:45:35.406Z,83.35
2023-03-18T05:48:03.894Z,82.79
2023-03-18T05:50:31.730Z,81.51
2023-03-18T05:52:59.235Z,82.46
2023-03-18T05:55:28.407Z,82.18
2023-03-18T05:57:56.221Z,81.84
2023-03-18T06:00:24.663Z,81.24
2023-03-18T06:02:53.937Z,82.38
2023-03-18T06:05:21.694Z,82.29
2023-03-18T06:07:49.322Z,83.18
2023-03-18T06:10:17.038Z,82.30
2023-03-18T06:12:45.980Z,83.16
2023-03-18T06:15:13.710Z,83.44
2023-03-18T06:17:41.272Z,83.37
2023-03-18T06:20:09.726Z,82.42
2023-03-18T06:22:37.278Z,82.67
2023-03-18T06:25:05.046Z,83.28
2023-03-18T06:27:32.549Z,82.88
2023-03-18T06:30:03.057Z,83.84
2023-03-18T06:32:31.227Z,83.40
2023-03-18T06:34:58.853Z,83.24
2023-03-18T06:37:26.458Z,83.09
2023-03-18T06:39:54.006Z,83.34
2023-03-18T06:42:21.534Z,83.70
2023-03-18T06:44:50.775Z,82.63
2023-03-18T06:47:20.970Z,84.28
2023-03-18T06:49:48.944Z,83.78
2023-03-18T06:52:17.226Z,82.58
2023-03-18T06:54:44.886Z,82.76
2023-03-18T06:57:12.460Z,82.33
2023-03-18T06:59:40.016Z,83.36
2023-03-18T07:02:08.612Z,82.46
2023-03-18T07:04:37.650Z,82.66
2023-03-18T07:07:05.882Z,83.33
2023-03-18T07:09:33.922Z,82.83
2023-03-18T07:12:01.713Z,81.49
2023-03-18T07:14:29.495Z,81.16
2023-03-18T07:16:57.122Z,81.93
2023-03-18T07:19:24.684Z,82.07
2023-03-18T07:21:53.582Z,83.91
2023-03-18T07:24:22.830Z,87.05
2023-03-18T07:26:51.721Z,83.63
2023-03-18T07:29:19.657Z,82.36
2023-03-18T07:31:47.336Z,82.73
2023-03-18T07:34:15.773Z,83.02
2023-03-18T07:36:43.257Z,83.43
2023-03-18T07:39:12.397Z,83.09
2023-03-18T07:41:39.894Z,83.48
2023-03-18T07:44:07.869Z,82.80
2023-03-18T07:46:35.633Z,82.87
2023-03-18T07:49:03.223Z,83.31
2023-03-18T07:51:30.770Z,83.53
2023-03-18T07:53:58.547Z,82.52
2023-03-18T07:56:28.133Z,82.50
2023-03-18T07:58:55.612Z,83.62
2023-03-18T08:01:23.076Z,84.93
2023-03-18T08:03:50.625Z,85.99
2023-03-18T08:06:20.595Z,84.21
2023-03-18T08:08:49.201Z,83.73
2023-03-18T08:11:16.766Z,81.64
2023-03-18T08:13:45.808Z,87.11
2023-03-18T08:16:13.527Z,83.84
2023-03-18T08:18:41.722Z,81.55
2023-03-18T08:21:09.492Z,84.67
2023-03-18T08:23:37.322Z,82.61
2023-03-18T08:26:04.948Z,82.66
2023-03-18T08:28:32.448Z,81.20
2023-03-18T08:31:01.466Z,82.18
2023-03-18T08:33:28.959Z,81.54
2023-03-18T08:35:58.001Z,81.16
2023-03-18T08:38:25.608Z,83.40
2023-03-18T08:40:53.303Z,82.27
2023-03-18T08:43:22.177Z,81.70
2023-03-18T08:45:52.668Z,82.74
2023-03-18T08:48:21.886Z,82.16
2023-03-18T08:50:49.395Z,82.56
2023-03-18T08:53:16.904Z,81.60
2023-03-18T08:55:44.538Z,80.39
2023-03-18T08:58:12.059Z,81.56
2023-03-18T09:00:40.566Z,82.13
2023-03-18T09:03:08.814Z,81.12
2023-03-18T09:05:38.638Z,79.73
2023-03-18T09:08:06.619Z,81.19
2023-03-18T09:10:34.314Z,81.29
2023-03-18T09:13:01.860Z,79.85
2023-03-18T09:15:29.328Z,79.05
2023-03-18T09:18:10.470Z,80.00
2023-03-18T09:20:40.755Z,79.50
2023-03-18T09:23:08.869Z,80.75
2023-03-18T09:25:36.563Z,79.47
2023-03-18T09:28:04.103Z,79.33
2023-03-18T09:30:31.926Z,79.63
2023-03-18T09:32:59.626Z,81.25
2023-03-18T09:35:29.079Z,80.57
2023-03-18T09:37:57.968Z,80.45
2023-03-18T09:40:26.112Z,82.01
2023-03-18T09:42:57.202Z,79.61
2023-03-18T09:45:25.850Z,80.07
2023-03-18T09:48:00.216Z,80.01
2023-03-18T09:50:29.159Z,82.74
2023-03-18T09:53:01.047Z,81.19
2023-03-18T09:55:30.318Z,80.72
2023-03-18T09:57:58.600Z,81.38
2023-03-18T10:00:27.794Z,79.34
2023-03-18T10:02:57.333Z,79.20
2023-03-18T10:05:25.958Z,78.84
2023-03-18T10:07:54.058Z,78.94
2023-03-18T10:10:25.645Z,78.80
2023-03-18T10:12:53.926Z,81.45
2023-03-18T10:15:22.748Z,78.66
2023-03-18T10:17:52.451Z,78.27
2023-03-18T10:20:21.011Z,78.79
2023-03-18T10:22:51.498Z,78.50
2023-03-18T10:25:21.410Z,78.90
2023-03-18T10:27:54.217Z,81.10
2023-03-18T10:30:39.679Z,79.85
2023-03-18T10:33:08.860Z,78.80
2023-03-18T10:35:38.930Z,79.06
2023-03-18T10:38:09.971Z,79.41
2023-03-18T10:40:38.236Z,78.93
2023-03-18T10:43:07.387Z,78.68
2023-03-18T10:45:35.181Z,78.46
2023-03-18T10:48:06.006Z,78.32
2023-03-18T10:50:34.889Z,78.63
2023-03-18T10:53:05.362Z,79.37
2023-03-18T10:55:34.368Z,77.88
2023-03-18T10:58:01.955Z,77.49
2023-03-18T11:00:33.084Z,77.49
2023-03-18T11:03:01.956Z,77.78
2023-03-18T11:05:29.843Z,77.95
2023-03-18T11:07:58.714Z,77.71
2023-03-18T11:10:27.672Z,78.33
2023-03-18T11:12:56.225Z,77.63
2023-03-18T11:15:25.023Z,77.56
2023-03-18T11:17:53.855Z,78.91
2023-03-18T11:20:24.485Z,78.43
2023-03-18T11:22:53.122Z,77.51
2023-03-18T11:25:23.122Z,77.32
2023-03-18T11:27:51.295Z,77.51
2023-03-18T11:30:33.032Z,77.38
2023-03-18T11:33:04.731Z,77.44
2023-03-18T11:35:34.119Z,77.67
2023-03-18T11:38:04.213Z,77.33
2023-03-18T11:40:32.740Z,76.56
2023-03-18T11:43:00.773Z,76.25
2023-03-18T11:45:45.201Z,76.17
2023-03-18T11:48:16.940Z,76.19
2023-03-18T11:50:46.963Z,76.26
2023-03-18T11:53:15.022Z,75.78
2023-03-18T11:55:44.428Z,75.91
2023-03-18T11:58:22.257Z,75.71
2023-03-18T12:00:50.607Z,75.21
2023-03-18T12:03:36.756Z,75.78
2023-03-18T12:06:13.152Z,75.45
2023-03-18T12:08:47.901Z,73.87
2023-03-18T12:11:19.175Z,75.13
2023-03-18T12:13:49.815Z,75.59
2023-03-18T12:16:19.059Z,75.43
2023-03-18T12:18:52.228Z,75.44
2023-03-18T12:21:26.338Z,75.65
2023-03-18T12:23:55.233Z,75.05
2023-03-18T12:26:24.634Z,75.30
2023-03-18T12:28:57.108Z,75.23
2023-03-18T12:31:36.342Z,72.57
2023-03-18T12:34:04.273Z,74.63
2023-03-18T12:36:44.342Z,74.84
2023-03-18T12:39:31.118Z,75.23
2023-03-18T12:42:01.243Z,75.22
2023-03-18T12:44:31.414Z,74.52
2023-03-18T12:47:01.448Z,73.80
2023-03-18T12:49:29.653Z,75.23
2023-03-18T12:51:59.137Z,75.45
2023-03-18T12:54:28.070Z,75.84
2023-03-18T12:56:56.834Z,75.66
2023-03-18T12:59:25.956Z,75.37
2023-03-18T13:01:55.531Z,75.29
2023-03-18T13:04:23.469Z,73.86
2023-03-18T13:06:52.651Z,74.62
2023-03-18T13:09:22.970Z,70.34
2023-03-18T13:12:01.751Z,74.54
2023-03-18T13:14:31.005Z,74.32
2023-03-18T13:16:59.150Z,74.11
2023-03-18T13:19:27.137Z,74.28
2023-03-18T13:21:55.905Z,74.27
2023-03-18T13:24:34.039Z,73.23
2023-03-18T13:27:08.568Z,73.57
2023-03-18T13:29:37.941Z,73.96
2023-03-18T13:32:07.818Z,74.38
2023-03-18T13:34:59.563Z,74.71
2023-03-18T13:37:29.087Z,74.27
2023-03-18T13:40:02.584Z,75.05
2023-03-18T13:42:30.367Z,74.47
2023-03-18T13:45:02.322Z,74.24
2023-03-18T13:47:30.582Z,73.50
2023-03-18T13:50:01.507Z,73.68
2023-03-18T13:52:33.435Z,74.22
2023-03-18T13:55:03.600Z,72.68
2023-03-18T13:57:43.861Z,73.43
2023-03-18T14:00:24.242Z,74.44
2023-03-18T14:03:02.449Z,75.02
2023-03-18T14:05:40.122Z,74.83
2023-03-18T14:08:23.335Z,74.70
2023-03-18T14:10:52.166Z,73.89
2023-03-18T14:13:26.913Z,74.10
2023-03-18T14:15:55.430Z,75.17
2023-03-18T14:18:27.833Z,74.47
2023-03-18T14:20:56.554Z,75.01
2023-03-18T14:23:39.206Z,75.11
2023-03-18T14:26:09.137Z,75.06
2023-03-18T14:28:39.270Z,74.61
2023-03-18T14:31:17.793Z,74.82
2023-03-18T14:33:49.864Z,75.94
2023-03-18T14:36:17.400Z,76.27
2023-03-18T14:38:47.332Z,76.24
2023-03-18T14:41:17.845Z,76.17
2023-03-18T14:43:47.196Z,75.96
2023-03-18T14:46:17.653Z,76.13
2023-03-18T14:48:46.947Z,75.91
2023-03-18T14:51:14.857Z,75.98
2023-03-18T14:53:47.481Z,75.10
2023-03-18T14:56:19.856Z,76.01
2023-03-18T14:58:47.965Z,76.04
2023-03-18T15:01:16.214Z,75.81
2023-03-18T15:03:44.745Z,75.53
2023-03-18T15:06:14.095Z,75.75
2023-03-18T15:08:48.104Z,75.75
2023-03-18T15:11:16.562Z,75.74
2023-03-18T15:13:46.343Z,75.82
2023-03-18T15:16:21.619Z,75.71
2023-03-18T15:18:52.717Z,75.87
2023-03-18T15:21:21.059Z,76.15
2023-03-18T15:23:49.723Z,75.21
2023-03-18T15:26:20.004Z,76.27
2023-03-18T15:28:48.907Z,75.46
2023-03-18T15:31:24.371Z,75.20
2023-03-18T15:33:56.579Z,75.17
2023-03-18T15:36:24.091Z,76.10
2023-03-18T15:38:52.408Z,76.25
2023-03-18T15:41:21.713Z,76.50
2023-03-18T15:43:51.479Z,76.54
2023-03-18T15:46:19.982Z,76.48
2023-03-18T15:48:54.369Z,76.79
2023-03-18T15:51:26.483Z,76.75
2023-03-18T15:53:55.155Z,76.81
2023-03-18T15:56:26.399Z,76.64
2023-03-18T15:59:05.374Z,75.66
2023-03-18T16:01:33.369Z,76.74
2023-03-18T16:04:00.860Z,76.28
2023-03-18T16:06:28.754Z,76.53
2023-03-18T16:08:56.688Z,76.58
2023-03-18T16:11:25.016Z,76.85
2023-03-18T16:13:53.552Z,76.82
2023-03-18T16:16:25.991Z,76.86
2023-03-18T16:18:54.534Z,77.40
2023-03-18T16:21:22.815Z,77.58
2023-03-18T16:23:50.417Z,77.75
2023-03-18T16:26:18.514Z,77.55
2023-03-18T16:28:48.276Z,78.07
2023-03-18T16:31:16.055Z,77.70
2023-03-18T16:33:46.337Z,77.99
2023-03-18T16:36:18.810Z,78.14
2023-03-18T16:38:46.832Z,78.01
2023-03-18T16:41:14.763Z,78.40
2023-03-18T16:43:43.142Z,78.11
2023-03-18T16:46:10.958Z,78.40
2023-03-18T16:48:38.490Z,78.41
2023-03-18T16:51:07.477Z,78.41
2023-03-18T16:53:35.001Z,78.67
2023-03-18T16:56:03.240Z,78.76
2023-03-18T16:58:33.046Z,79.00
2023-03-18T17:01:00.582Z,78.61
2023-03-18T17:03:29.396Z,78.73
2023-03-18T17:05:56.959Z,78.65
2023-03-18T17:08:26.170Z,78.74
2023-03-18T17:10:56.729Z,78.74
2023-03-18T17:13:25.912Z,78.76
2023-03-18T17:15:53.398Z,78.97
2023-03-18T17:18:22.136Z,79.10
2023-03-18T17:20:49.851Z,79.12
2023-03-18T17:23:18.999Z,78.93
2023-03-18T17:25:49.769Z,78.98
2023-03-18T17:28:23.224Z,79.20
2023-03-18T17:30:53.196Z,78.91
2023-03-18T17:33:25.462Z,78.65
2023-03-18T17:35:53.237Z,79.34
2023-03-18T17:38:20.850Z,78.90
2023-03-18T17:40:50.095Z,79.00
2023-03-18T17:43:18.675Z,79.28
2023-03-18T17:45:46.794Z,79.41
2023-03-18T17:48:15.393Z,79.65
2023-03-18T17:50:44.230Z,79.52
2023-03-18T17:53:15.164Z,79.55
2023-03-18T17:55:42.612Z,79.72
2023-03-18T17:58:12.999Z,79.88
2023-03-18T18:00:40.551Z,79.90
2023-03-18T18:03:10.635Z,79.89
2023-03-18T18:05:38.165Z,79.95
2023-03-18T18:08:07.803Z,80.14
2023-03-18T18:10:35.369Z,80.19
2023-03-18T18:13:02.913Z,80.67
2023-03-18T18:15:31.911Z,80.43
2023-03-18T18:17:59.510Z,80.45
2023-03-18T18:20:26.977Z,80.83
2023-03-18T18:22:55.102Z,80.80
2023-03-18T18:25:23.286Z,81.07
2023-03-18T18:27:51.841Z,81.23
2023-03-18T18:30:20.345Z,81.27
2023-03-18T18:32:49.283Z,81.40
2023-03-18T18:35:17.381Z,81.49
2023-03-18T18:37:45.013Z,82.03
2023-03-18T18:40:13.513Z,81.71
2023-03-18T18:42:42.022Z,81.92
2023-03-18T18:45:10.324Z,81.77
2023-03-18T18:47:38.493Z,81.83
2023-03-18T18:50:07.869Z,82.14
2023-03-18T18:52:35.350Z,82.50
2023-03-18T18:55:02.832Z,82.11
2023-03-18T18:57:30.978Z,82.35
2023-03-18T18:59:58.515Z,82.39
2023-03-18T19:02:29.462Z,82.58
2023-03-18T19:04:57.092Z,82.69
2023-03-18T19:07:26.298Z,82.52
2023-03-18T19:09:54.510Z,83.02
2023-03-18T19:12:22.225Z,83.33
2023-03-18T19:14:49.720Z,83.67
2023-03-18T19:17:18.500Z,83.44
2023-03-18T19:19:46.107Z,83.69
2023-03-18T19:22:14.345Z,83.76
2023-03-18T19:24:43.804Z,84.07
2023-03-18T19:27:16.863Z,83.63
2023-03-18T19:29:44.480Z,83.73
2023-03-18T19:32:15.560Z,84.11
2023-03-18T19:34:43.041Z,84.11
2023-03-18T19:37:11.047Z,84.42
2023-03-18T19:39:38.625Z,84.19
2023-03-18T19:42:07.540Z,84.22
2023-03-18T19:44:35.000Z,83.34
2023-03-18T19:47:02.816Z,84.12
2023-03-18T19:49:32.839Z,84.02
2023-03-18T19:52:00.514Z,84.02
2023-03-18T19:54:29.066Z,84.47
2023-03-18T19:56:57.079Z,84.68
2023-03-18T19:59:33.573Z,84.46
2023-03-18T20:02:03.661Z,84.81
2023-03-18T20:04:31.222Z,84.52
2023-03-18T20:06:58.691Z,84.62
2023-03-18T20:09:26.362Z,84.81
2023-03-18T20:11:54.537Z,84.94
2023-03-18T20:14:23.251Z,85.06
2023-03-18T20:16:52.510Z,84.66
2023-03-18T20:19:19.990Z,84.71
2023-03-18T20:21:47.487Z,84.69
2023-03-18T20:24:15.380Z,85.24
2023-03-18T20:26:43.135Z,84.85
2023-03-18T20:29:14.190Z,84.85
2023-03-18T20:31:41.844Z,84.93
2023-03-18T20:34:10.768Z,85.27
2023-03-18T20:36:38.270Z,84.89
2023-03-18T20:39:06.315Z,85.19
2023-03-18T20:41:33.885Z,85.13
2023-03-18T20:44:01.490Z,84.89
2023-03-18T20:46:29.064Z,84.50
2023-03-18T20:48:57.272Z,84.69
2023-03-18T20:51:27.850Z,84.15
2023-03-18T20:53:55.300Z,85.28
2023-03-18T20:56:23.004Z,84.96
2023-03-18T20:58:50.585Z,85.75
2023-03-18T21:01:18.197Z,85.44
2023-03-18T21:03:45.988Z,85.70
2023-03-18T21:06:14.446Z,85.08
2023-03-18T21:08:43.443Z,85.60
2023-03-18T21:11:16.005Z,85.50
2023-03-18T21:13:43.574Z,84.72
2023-03-18T21:16:11.751Z,84.95
2023-03-18T21:18:41.568Z,84.94
2023-03-18T21:21:10.582Z,84.33
2023-03-18T21:23:38.029Z,84.43
2023-03-18T21:26:07.217Z,84.62
2023-03-18T21:28:34.747Z,84.36
2023-03-18T21:31:02.511Z,84.49
2023-03-18T21:33:31.316Z,84.53
2023-03-18T21:35:59.040Z,85.58
2023-03-18T21:38:27.297Z,85.28
2023-03-18T21:40:54.766Z,85.13
2023-03-18T21:43:30.695Z,84.89
2023-03-18T21:45:58.209Z,84.95
2023-03-18T21:48:25.765Z,84.24
2023-03-18T21:50:54.118Z,83.35
2023-03-18T21:53:22.472Z,83.50
2023-03-18T21:55:50.346Z,83.64
2023-03-18T21:58:18.098Z,83.82
2023-03-18T22:00:47.891Z,83.75
2023-03-18T22:03:15.591Z,84.52
2023-03-18T22:05:43.029Z,85.04
2023-03-18T22:08:10.499Z,85.29
2023-03-18T22:10:38.195Z,84.72
2023-03-18T22:13:11.296Z,85.24
2023-03-18T22:15:39.808Z,85.74
2023-03-18T22:18:08.804Z,85.69
2023-03-18T22:20:37.432Z,85.94
2023-03-18T22:23:11.823Z,85.35
2023-03-18T22:25:39.972Z,85.30
2023-03-18T22:28:07.446Z,85.43
2023-03-18T22:30:35.176Z,85.63
2023-03-18T22:33:02.854Z,85.53
2023-03-18T22:35:32.185Z,85.34
2023-03-18T22:38:00.171Z,85.51
2023-03-18T22:40:28.171Z,85.54
2023-03-18T22:42:56.401Z,85.32
2023-03-18T22:45:27.550Z,85.46
2023-03-18T22:47:55.552Z,85.50
2023-03-18T22:50:23.007Z,85.63
2023-03-18T22:52:52.653Z,85.36
2023-03-18T22:55:21.020Z,85.50
2023-03-18T22:57:48.681Z,85.48
2023-03-18T23:00:19.887Z,85.67
2023-03-18T23:02:47.432Z,85.36
2023-03-18T23:05:16.544Z,85.24
2023-03-18T23:07:44.478Z,85.22
2023-03-18T23:10:14.055Z,85.35
2023-03-18T23:12:41.863Z,85.19
2023-03-18T23:15:10.093Z,85.56
2023-03-18T23:17:37.584Z,85.54
2023-03-18T23:20:05.739Z,85.69
2023-03-18T23:22:33.581Z,85.62
2023-03-18T23:25:01.370Z,85.43
2023-03-18T23:27:30.472Z,85.54
2023-03-18T23:29:57.908Z,85.32
2023-03-18T23:32:25.511Z,85.52
2023-03-18T23:34:53.072Z,85.60
2023-03-18T23:37:20.721Z,85.79
2023-03-18T23:39:48.244Z,85.79
2023-03-18T23:42:15.961Z,85.91
2023-03-18T23:44:45.095Z,86.04
2023-03-18T23:47:13.235Z,85.69
2023-03-18T23:49:40.955Z,85.61
2023-03-18T23:52:09.501Z,85.63
2023-03-18T23:54:37.207Z,85.54
2023-03-18T23:57:04.888Z,85.34
2023-03-18T23:59:32.373Z,85.85
